createdAt,value
2022-10-11T00:01:20.638Z,18.17
2022-10-11T00:03:47.348Z,18.12
2022-10-11T00:06:14.104Z,18.16
2022-10-11T00:08:40.698Z,18.18
2022-10-11T00:11:08.066Z,18.19
2022-10-11T00:13:34.923Z,18.18
2022-10-11T00:16:07.807Z,18.16
2022-10-11T00:18:34.728Z,18.09
2022-10-11T00:21:06.197Z,18.10
2022-10-11T00:23:33.429Z,18.08
2022-10-11T00:26:02.081Z,18.03
2022-10-11T00:28:29.086Z,18.00
2022-10-11T00:30:55.790Z,18.02
2022-10-11T00:33:22.549Z,18.03
2022-10-11T00:35:49.348Z,17.96
2022-10-11T00:38:18.213Z,17.95
2022-10-11T00:40:45.655Z,17.94
2022-10-11T00:43:25.632Z,17.97
2022-10-11T00:45:58.270Z,17.99
2022-10-11T00:48:47.949Z,18.01
2022-10-11T00:51:18.316Z,17.97
2022-10-11T00:53:48.605Z,17.94
2022-10-11T00:56:23.774Z,17.96
2022-10-11T00:58:50.828Z,17.95
2022-10-11T01:01:17.763Z,17.87
2022-10-11T01:03:45.183Z,17.84
2022-10-11T01:06:11.862Z,17.80
2022-10-11T01:08:39.097Z,17.76
2022-10-11T01:11:06.559Z,17.73
2022-10-11T01:13:44.889Z,17.72
2022-10-11T01:16:37.775Z,17.68
2022-10-11T01:19:29.106Z,17.68
2022-10-11T01:22:19.090Z,17.65
2022-10-11T01:25:19.841Z,17.63
2022-10-11T01:28:10.669Z,17.56
2022-10-11T01:30:38.510Z,17.50
2022-10-11T01:33:24.628Z,17.52
2022-10-11T01:36:04.107Z,17.51
2022-10-11T01:38:37.023Z,17.41
2022-10-11T01:41:16.975Z,17.33
2022-10-11T01:43:44.205Z,17.35
2022-10-11T01:46:11.693Z,17.39
2022-10-11T01:48:50.119Z,17.47
2022-10-11T01:51:19.576Z,17.46
2022-10-11T01:53:50.819Z,17.50
2022-10-11T01:56:22.837Z,17.51
2022-10-11T01:59:06.615Z,17.49
2022-10-11T02:01:36.140Z,17.46
2022-10-11T02:04:23.783Z,17.45
2022-10-11T02:06:56.293Z,17.40
2022-10-11T02:09:36.514Z,17.37
2022-10-11T02:12:09.262Z,17.33
2022-10-11T02:14:41.793Z,17.28
2022-10-11T02:17:22.923Z,17.28
2022-10-11T02:19:53.140Z,17.20
2022-10-11T02:22:25.070Z,17.14
2022-10-11T02:24:55.531Z,17.10
2022-10-11T02:27:26.828Z,17.06
2022-10-11T02:29:56.262Z,16.97
2022-10-11T02:32:25.379Z,16.88
2022-10-11T02:34:57.576Z,16.93
2022-10-11T02:37:30.241Z,16.95
2022-10-11T02:40:06.603Z,16.99
2022-10-11T02:43:04.824Z,16.99
2022-10-11T02:45:43.884Z,17.05
2022-10-11T02:48:12.403Z,17.05
2022-10-11T02:50:40.371Z,17.07
2022-10-11T02:53:07.275Z,17.06
2022-10-11T02:55:34.178Z,17.05
2022-10-11T02:58:01.223Z,17.01
2022-10-11T03:00:28.410Z,16.97
2022-10-11T03:02:55.040Z,16.90
2022-10-11T03:05:21.589Z,16.84
2022-10-11T03:07:48.221Z,16.81
2022-10-11T03:10:14.766Z,16.83
2022-10-11T03:12:41.777Z,16.84
2022-10-11T03:15:08.691Z,16.82
2022-10-11T03:17:36.843Z,16.77
2022-10-11T03:20:07.288Z,16.70
2022-10-11T03:22:33.962Z,16.61
2022-10-11T03:25:04.004Z,16.55
2022-10-11T03:27:31.736Z,16.50
2022-10-11T03:29:58.727Z,16.39
2022-10-11T03:32:25.782Z,16.30
2022-10-11T03:34:52.442Z,16.28
2022-10-11T03:37:19.036Z,16.30
2022-10-11T03:39:45.900Z,16.30
2022-10-11T03:42:13.983Z,16.28
2022-10-11T03:44:42.186Z,16.22
2022-10-11T03:47:09.045Z,16.20
2022-10-11T03:49:38.791Z,16.20
2022-10-11T03:52:07.846Z,16.23
2022-10-11T03:54:34.386Z,16.28
2022-10-11T03:57:01.183Z,16.31
2022-10-11T03:59:27.714Z,16.33
2022-10-11T04:01:54.377Z,16.27
2022-10-11T04:04:20.994Z,16.18
2022-10-11T04:06:47.620Z,16.10
2022-10-11T04:09:14.193Z,15.99
2022-10-11T04:11:40.703Z,15.88
2022-10-11T04:14:07.310Z,15.78
2022-10-11T04:16:35.159Z,15.76
2022-10-11T04:19:01.694Z,15.72
2022-10-11T04:21:28.254Z,15.70
2022-10-11T04:23:54.983Z,15.56
2022-10-11T04:26:21.511Z,15.48
2022-10-11T04:28:48.137Z,15.45
2022-10-11T04:31:14.871Z,15.45
2022-10-11T04:33:41.396Z,15.37
2022-10-11T04:36:08.636Z,15.31
2022-10-11T04:38:35.438Z,15.29
2022-10-11T04:41:29.312Z,15.24
2022-10-11T04:43:56.109Z,15.16
2022-10-11T04:46:23.411Z,15.10
2022-10-11T04:48:50.164Z,15.07
2022-10-11T04:51:17.485Z,14.97
2022-10-11T04:53:44.297Z,14.89
2022-10-11T04:56:11.505Z,14.79
2022-10-11T04:58:42.271Z,14.77
2022-10-11T05:01:09.730Z,14.74
2022-10-11T05:03:36.778Z,14.75
2022-10-11T05:06:06.100Z,14.75
2022-10-11T05:08:33.718Z,14.72
2022-10-11T05:11:02.587Z,14.75
2022-10-11T05:13:30.500Z,14.87
2022-10-11T05:15:58.188Z,14.87
2022-10-11T05:18:25.185Z,14.92
2022-10-11T05:21:19.704Z,14.94
2022-10-11T05:23:47.965Z,14.94
2022-10-11T05:26:15.743Z,15.02
2022-10-11T05:28:43.003Z,15.01
2022-10-11T05:31:10.240Z,15.01
2022-10-11T05:33:36.991Z,14.91
2022-10-11T05:36:04.600Z,14.84
2022-10-11T05:38:31.564Z,14.80
2022-10-11T05:41:02.953Z,14.81
2022-10-11T05:43:30.411Z,14.74
2022-10-11T05:45:57.255Z,14.61
2022-10-11T05:48:26.813Z,14.53
2022-10-11T05:51:02.974Z,14.41
2022-10-11T05:53:29.955Z,14.34
2022-10-11T05:55:56.797Z,14.24
2022-10-11T05:58:23.407Z,14.13
2022-10-11T06:00:50.116Z,14.07
2022-10-11T06:03:17.575Z,14.06
2022-10-11T06:05:44.180Z,14.00
2022-10-11T06:08:11.133Z,14.03
2022-10-11T06:10:38.549Z,14.08
2022-10-11T06:13:06.173Z,14.12
2022-10-11T06:15:33.328Z,14.05
2022-10-11T06:18:00.049Z,14.07
2022-10-11T06:20:27.154Z,14.09
2022-10-11T06:22:53.910Z,14.11
2022-10-11T06:25:20.493Z,14.17
2022-10-11T06:27:47.068Z,14.26
2022-10-11T06:30:14.399Z,14.38
2022-10-11T06:32:40.981Z,14.43
2022-10-11T06:35:08.209Z,14.50
2022-10-11T06:37:34.799Z,14.55
2022-10-11T06:40:02.081Z,14.68
2022-10-11T06:42:28.623Z,14.70
2022-10-11T06:44:55.118Z,14.77
2022-10-11T06:47:21.714Z,14.73
2022-10-11T06:49:48.259Z,14.86
2022-10-11T06:52:14.938Z,15.00
2022-10-11T06:54:44.927Z,15.08
2022-10-11T06:57:12.585Z,15.20
2022-10-11T06:59:39.230Z,15.25
2022-10-11T07:02:06.771Z,15.27
2022-10-11T07:04:33.965Z,15.34
2022-10-11T07:07:01.155Z,15.38
2022-10-11T07:09:27.837Z,15.43
2022-10-11T07:11:54.399Z,15.50
2022-10-11T07:14:20.939Z,15.54
2022-10-11T07:16:47.660Z,15.59
2022-10-11T07:19:14.301Z,15.66
2022-10-11T07:21:40.823Z,15.73
2022-10-11T07:24:07.592Z,15.81
2022-10-11T07:26:38.792Z,15.87
2022-10-11T07:29:08.055Z,15.98
2022-10-11T07:31:37.367Z,16.10
2022-10-11T07:34:04.071Z,16.17
2022-10-11T07:36:30.724Z,16.19
2022-10-11T07:38:57.301Z,16.22
2022-10-11T07:41:23.986Z,16.20
2022-10-11T07:43:50.979Z,16.22
2022-10-11T07:46:18.309Z,16.28
2022-10-11T07:48:44.993Z,16.36
2022-10-11T07:51:12.985Z,16.42
2022-10-11T07:53:45.352Z,16.49
2022-10-11T07:56:14.196Z,16.51
2022-10-11T07:58:42.002Z,16.57
2022-10-11T08:01:10.451Z,16.59
2022-10-11T08:03:38.100Z,16.57
2022-10-11T08:06:07.787Z,16.44
2022-10-11T08:08:35.128Z,16.43
2022-10-11T08:11:02.192Z,16.46
2022-10-11T08:13:28.864Z,16.43
2022-10-11T08:15:55.544Z,16.49
2022-10-11T08:18:22.442Z,16.56
2022-10-11T08:20:49.156Z,16.63
2022-10-11T08:23:16.859Z,16.80
2022-10-11T08:25:46.092Z,16.93
2022-10-11T08:28:17.150Z,16.98
2022-10-11T08:30:48.737Z,17.16
2022-10-11T08:33:16.794Z,17.28
2022-10-11T08:35:43.773Z,17.25
2022-10-11T08:38:10.719Z,17.24
2022-10-11T08:40:37.890Z,17.39
2022-10-11T08:43:08.455Z,17.47
2022-10-11T08:45:50.253Z,17.57
2022-10-11T08:48:34.245Z,17.44
2022-10-11T08:51:02.690Z,17.37
2022-10-11T08:53:46.386Z,17.46
2022-10-11T08:56:14.710Z,17.71
2022-10-11T08:58:50.754Z,17.81
2022-10-11T09:01:28.137Z,17.95
2022-10-11T09:03:55.318Z,18.08
2022-10-11T09:06:43.531Z,18.12
2022-10-11T09:09:23.391Z,18.04
2022-10-11T09:12:02.139Z,17.91
2022-10-11T09:15:10.354Z,17.82
2022-10-11T09:18:04.579Z,17.98
2022-10-11T09:20:45.988Z,18.28
2022-10-11T09:23:31.196Z,18.67
2022-10-11T09:26:25.595Z,18.78
2022-10-11T09:29:21.697Z,18.80
2022-10-11T09:31:57.048Z,18.79
2022-10-11T09:34:32.399Z,18.93
2022-10-11T09:37:42.076Z,19.33
2022-10-11T09:40:20.759Z,19.98
2022-10-11T09:42:47.316Z,20.15
2022-10-11T09:45:20.167Z,20.61
2022-10-11T09:47:48.175Z,20.75
2022-10-11T09:50:25.731Z,20.59
2022-10-11T09:52:57.402Z,20.55
2022-10-11T09:55:41.050Z,21.77
2022-10-11T09:58:31.059Z,24.97
2022-10-11T10:01:07.956Z,28.12
2022-10-11T10:03:39.820Z,29.05
2022-10-11T10:06:08.551Z,27.88
2022-10-11T10:08:36.005Z,29.11
2022-10-11T10:11:06.743Z,30.82
2022-10-11T10:13:51.331Z,32.70
2022-10-11T10:16:28.430Z,34.09
2022-10-11T10:18:59.126Z,34.19
2022-10-11T10:21:32.559Z,32.16
2022-10-11T10:24:03.270Z,29.86
2022-10-11T10:26:31.137Z,27.85
2022-10-11T10:29:08.901Z,25.95
2022-10-11T10:32:01.865Z,24.60
2022-10-11T10:34:39.773Z,23.55
2022-10-11T10:37:14.053Z,22.89
2022-10-11T10:39:47.067Z,22.43
2022-10-11T10:42:18.832Z,22.01
2022-10-11T10:44:52.428Z,21.66
2022-10-11T10:47:50.515Z,21.43
2022-10-11T10:50:31.196Z,21.14
2022-10-11T10:53:31.578Z,21.22
2022-10-11T10:56:10.276Z,21.60
2022-10-11T10:58:49.033Z,22.52
2022-10-11T11:01:29.065Z,26.47
2022-10-11T11:04:13.949Z,30.87
2022-10-11T11:07:15.129Z,34.19
2022-10-11T11:10:13.180Z,36.19
2022-10-11T11:13:02.353Z,37.17
2022-10-11T11:15:38.678Z,38.02
2022-10-11T11:18:27.128Z,38.90
2022-10-11T11:21:18.771Z,39.41
2022-10-11T11:23:45.340Z,39.76
2022-10-11T11:26:27.510Z,40.17
2022-10-11T11:28:57.100Z,40.40
2022-10-11T11:32:01.937Z,40.81
2022-10-11T11:34:37.889Z,41.02
2022-10-11T11:37:11.729Z,41.15
2022-10-11T11:39:48.316Z,41.23
2022-10-11T11:42:39.329Z,41.42
2022-10-11T11:45:14.934Z,41.00
2022-10-11T11:47:47.159Z,40.90
2022-10-11T11:50:22.608Z,40.26
2022-10-11T11:52:58.379Z,40.38
2022-10-11T11:55:37.375Z,40.43
2022-10-11T11:58:37.424Z,40.21
2022-10-11T12:01:18.012Z,40.37
2022-10-11T12:03:52.528Z,40.40
2022-10-11T12:06:27.854Z,40.54
2022-10-11T12:09:02.008Z,40.74
2022-10-11T12:11:40.271Z,40.73
2022-10-11T12:14:28.123Z,40.25
2022-10-11T12:17:09.307Z,39.97
2022-10-11T12:19:37.686Z,39.79
2022-10-11T12:22:17.932Z,39.02
2022-10-11T12:25:20.986Z,36.08
2022-10-11T12:27:48.766Z,32.34
2022-10-11T12:30:53.308Z,29.83
2022-10-11T12:33:51.326Z,27.93
2022-10-11T12:36:56.725Z,26.58
2022-10-11T12:39:23.552Z,25.84
2022-10-11T12:41:55.755Z,25.21
2022-10-11T12:44:23.849Z,24.65
2022-10-11T12:46:50.346Z,24.27
2022-10-11T12:49:52.891Z,24.05
2022-10-11T12:52:47.520Z,23.77
2022-10-11T12:55:35.041Z,23.35
2022-10-11T12:58:13.963Z,23.16
2022-10-11T13:00:41.281Z,23.14
2022-10-11T13:03:32.809Z,23.09
2022-10-11T13:06:04.690Z,23.04
2022-10-11T13:08:34.946Z,22.94
2022-10-11T13:11:06.392Z,22.93
2022-10-11T13:13:43.913Z,22.87
2022-10-11T13:16:21.221Z,22.79
2022-10-11T13:18:50.925Z,22.69
2022-10-11T13:21:32.171Z,22.65
2022-10-11T13:24:02.286Z,22.56
2022-10-11T13:26:31.293Z,22.57
2022-10-11T13:29:00.169Z,22.54
2022-10-11T13:31:27.438Z,22.40
2022-10-11T13:33:56.628Z,22.36
2022-10-11T13:36:26.858Z,22.23
2022-10-11T13:38:57.320Z,22.18
2022-10-11T13:41:27.682Z,22.19
2022-10-11T13:43:56.665Z,22.08
2022-10-11T13:46:26.145Z,21.93
2022-10-11T13:49:05.645Z,21.87
2022-10-11T13:51:37.037Z,21.66
2022-10-11T13:54:13.099Z,21.53
2022-10-11T13:56:51.580Z,21.62
2022-10-11T13:59:23.889Z,21.81
2022-10-11T14:01:57.855Z,21.73
2022-10-11T14:04:29.537Z,21.69
2022-10-11T14:07:00.584Z,21.60
2022-10-11T14:09:31.923Z,21.60
2022-10-11T14:12:39.644Z,21.55
2022-10-11T14:15:31.326Z,21.48
2022-10-11T14:17:59.159Z,21.39
2022-10-11T14:20:38.226Z,21.36
2022-10-11T14:23:05.547Z,21.33
2022-10-11T14:25:32.673Z,21.35
2022-10-11T14:27:59.802Z,21.34
2022-10-11T14:30:28.026Z,21.29
2022-10-11T14:32:57.854Z,21.26
2022-10-11T14:35:30.776Z,21.24
2022-10-11T14:37:57.282Z,21.27
2022-10-11T14:40:27.423Z,21.31
2022-10-11T14:42:54.205Z,21.23
2022-10-11T14:45:23.930Z,21.21
2022-10-11T14:47:51.864Z,21.21
2022-10-11T14:50:39.332Z,21.23
2022-10-11T14:53:07.577Z,21.18
2022-10-11T14:55:36.734Z,21.15
2022-10-11T14:58:05.676Z,21.16
2022-10-11T15:00:33.098Z,21.15
2022-10-11T15:02:59.706Z,21.05
2022-10-11T15:05:33.708Z,20.92
2022-10-11T15:08:02.083Z,20.79
2022-10-11T15:10:35.034Z,20.69
2022-10-11T15:13:02.489Z,20.55
2022-10-11T15:15:32.798Z,20.36
2022-10-11T15:18:01.812Z,20.19
2022-10-11T15:20:31.440Z,20.07
2022-10-11T15:22:59.024Z,19.97
2022-10-11T15:25:26.284Z,19.83
2022-10-11T15:27:53.544Z,19.72
2022-10-11T15:30:41.864Z,19.74
2022-10-11T15:33:08.892Z,19.67
2022-10-11T15:35:35.708Z,19.62
2022-10-11T15:38:02.434Z,19.61
2022-10-11T15:40:35.392Z,19.60
2022-10-11T15:43:03.041Z,19.55
2022-10-11T15:45:30.215Z,19.51
2022-10-11T15:47:57.135Z,19.49
2022-10-11T15:50:39.319Z,19.41
2022-10-11T15:53:12.597Z,19.34
2022-10-11T15:55:44.769Z,19.26
2022-10-11T15:58:21.981Z,19.17
2022-10-11T16:00:50.154Z,19.08
2022-10-11T16:03:17.820Z,18.98
2022-10-11T16:05:44.647Z,18.85
2022-10-11T16:08:11.481Z,18.77
2022-10-11T16:10:39.015Z,18.71
2022-10-11T16:13:06.153Z,18.61
2022-10-11T16:15:33.533Z,18.54
2022-10-11T16:18:00.284Z,18.49
2022-10-11T16:20:27.049Z,18.40
2022-10-11T16:22:54.871Z,18.33
2022-10-11T16:25:22.479Z,18.24
2022-10-11T16:27:50.230Z,18.18
2022-10-11T16:30:17.859Z,18.15
2022-10-11T16:32:45.176Z,18.13
2022-10-11T16:35:16.019Z,18.16
2022-10-11T16:37:43.214Z,18.16
2022-10-11T16:40:11.709Z,18.15
2022-10-11T16:42:39.395Z,18.12
2022-10-11T16:45:06.795Z,18.12
2022-10-11T16:47:34.021Z,18.14
2022-10-11T16:50:00.937Z,18.20
2022-10-11T16:52:27.574Z,18.16
2022-10-11T16:54:54.311Z,18.09
2022-10-11T16:57:21.007Z,18.01
2022-10-11T16:59:47.659Z,17.99
2022-10-11T17:02:17.796Z,17.93
2022-10-11T17:04:45.091Z,17.91
2022-10-11T17:07:13.036Z,17.88
2022-10-11T17:09:43.980Z,17.79
2022-10-11T17:12:13.658Z,17.70
2022-10-11T17:14:41.105Z,17.60
2022-10-11T17:17:09.316Z,17.57
2022-10-11T17:19:44.851Z,17.56
2022-10-11T17:22:14.011Z,17.50
2022-10-11T17:24:40.949Z,17.43
2022-10-11T17:27:08.419Z,17.36
2022-10-11T17:29:38.441Z,17.32
2022-10-11T17:32:05.845Z,17.24
2022-10-11T17:34:33.187Z,17.18
2022-10-11T17:36:59.855Z,17.12
2022-10-11T17:39:26.558Z,17.01
2022-10-11T17:41:53.167Z,16.94
2022-10-11T17:44:20.161Z,16.88
2022-10-11T17:46:47.439Z,16.89
2022-10-11T17:49:14.191Z,16.93
2022-10-11T17:51:41.475Z,17.00
2022-10-11T17:54:12.787Z,17.06
2022-10-11T17:56:41.752Z,17.09
2022-10-11T17:59:14.560Z,17.15
2022-10-11T18:01:41.558Z,17.19
2022-10-11T18:04:13.398Z,17.15
2022-10-11T18:06:40.077Z,17.07
2022-10-11T18:09:07.186Z,17.05
2022-10-11T18:11:34.126Z,17.06
2022-10-11T18:14:01.012Z,17.07
2022-10-11T18:16:30.114Z,17.04
2022-10-11T18:18:57.526Z,17.05
2022-10-11T18:21:29.857Z,17.04
2022-10-11T18:24:02.521Z,17.05
2022-10-11T18:26:30.762Z,17.04
2022-10-11T18:28:58.138Z,17.00
2022-10-11T18:31:27.633Z,16.94
2022-10-11T18:33:55.101Z,16.85
2022-10-11T18:36:25.737Z,16.82
2022-10-11T18:38:57.121Z,16.78
2022-10-11T18:41:30.405Z,16.68
2022-10-11T18:43:59.482Z,16.67
2022-10-11T18:46:26.462Z,16.66
2022-10-11T18:48:54.925Z,16.66
2022-10-11T18:51:26.965Z,16.68
2022-10-11T18:53:54.856Z,16.66
2022-10-11T18:56:24.580Z,16.64
2022-10-11T18:58:52.188Z,16.53
2022-10-11T19:01:22.054Z,16.41
2022-10-11T19:03:52.562Z,16.42
2022-10-11T19:06:22.275Z,16.39
2022-10-11T19:09:09.388Z,16.30
2022-10-11T19:11:36.841Z,16.17
2022-10-11T19:14:07.198Z,16.18
2022-10-11T19:16:38.037Z,16.16
2022-10-11T19:19:05.358Z,16.15
2022-10-11T19:21:32.132Z,16.23
2022-10-11T19:23:59.102Z,16.31
2022-10-11T19:26:33.910Z,16.39
2022-10-11T19:29:04.241Z,16.45
2022-10-11T19:31:32.568Z,16.49
2022-10-11T19:33:59.814Z,16.56
2022-10-11T19:36:33.985Z,16.63
2022-10-11T19:39:04.653Z,16.70
2022-10-11T19:41:32.556Z,16.73
2022-10-11T19:43:59.990Z,16.79
2022-10-11T19:49:17.694Z,16.82
2022-10-11T19:51:44.893Z,16.79
2022-10-11T19:54:13.789Z,16.74
2022-10-11T19:56:40.916Z,16.69
2022-10-11T19:59:07.868Z,16.67
2022-10-11T20:01:36.251Z,16.67
2022-10-11T20:04:09.105Z,16.66
2022-10-11T20:06:38.991Z,16.61
2022-10-11T20:09:28.384Z,16.58
2022-10-11T20:11:54.801Z,16.57
2022-10-11T20:14:21.814Z,16.56
2022-10-11T20:16:50.335Z,16.56
2022-10-11T20:19:17.516Z,16.53
2022-10-11T20:21:45.023Z,16.46
2022-10-11T20:24:12.160Z,16.36
2022-10-11T20:26:39.346Z,16.28
2022-10-11T20:29:06.394Z,16.25
2022-10-11T20:31:34.641Z,16.17
2022-10-11T20:34:04.086Z,16.14
2022-10-11T20:36:32.197Z,16.09
2022-10-11T20:38:59.532Z,16.03
2022-10-11T20:41:28.940Z,15.97
2022-10-11T20:43:57.706Z,15.92
2022-10-11T20:46:27.918Z,15.87
2022-10-11T20:49:01.355Z,15.82
2022-10-11T20:51:30.702Z,15.79
2022-10-11T20:53:58.725Z,15.72
2022-10-11T20:56:25.713Z,15.60
2022-10-11T20:58:56.963Z,15.48
2022-10-11T21:01:32.182Z,15.37
2022-10-11T21:04:00.877Z,15.26
2022-10-11T21:06:28.885Z,15.21
2022-10-11T21:08:56.478Z,15.20
2022-10-11T21:11:31.268Z,15.22
2022-10-11T21:13:59.456Z,15.26
2022-10-11T21:16:27.371Z,15.31
2022-10-11T21:18:56.524Z,15.40
2022-10-11T21:21:26.549Z,15.50
2022-10-11T21:23:55.594Z,15.53
2022-10-11T21:26:22.341Z,15.45
2022-10-11T21:28:49.244Z,15.42
2022-10-11T21:31:17.944Z,15.40
2022-10-11T21:33:45.105Z,15.36
2022-10-11T21:36:20.680Z,15.29
2022-10-11T21:38:48.333Z,15.25
2022-10-11T21:41:20.628Z,15.25
2022-10-11T21:43:48.049Z,15.22
2022-10-11T21:46:47.642Z,15.13
2022-10-11T21:49:13.896Z,15.10
2022-10-11T21:51:40.493Z,15.11
2022-10-11T21:54:07.240Z,15.10
2022-10-11T21:56:34.056Z,15.07
2022-10-11T21:59:00.796Z,15.02
2022-10-11T22:01:27.789Z,14.98
2022-10-11T22:03:55.115Z,14.97
2022-10-11T22:06:21.884Z,14.94
2022-10-11T22:08:49.949Z,15.03
2022-10-11T22:11:16.829Z,15.17
2022-10-11T22:13:43.526Z,15.27
2022-10-11T22:16:12.330Z,15.29
2022-10-11T22:18:39.440Z,15.32
2022-10-11T22:21:13.463Z,15.33
2022-10-11T22:23:41.576Z,15.35
2022-10-11T22:26:14.810Z,15.29
2022-10-11T22:28:41.978Z,15.26
2022-10-11T22:31:10.099Z,15.29
2022-10-11T22:33:37.142Z,15.33
2022-10-11T22:36:08.532Z,15.30
2022-10-11T22:38:36.589Z,15.27
2022-10-11T22:41:03.472Z,15.29
2022-10-11T22:43:30.159Z,15.30
2022-10-11T22:45:56.779Z,15.28
2022-10-11T22:48:23.518Z,15.27
2022-10-11T22:50:50.174Z,15.23
2022-10-11T22:53:17.494Z,15.10
2022-10-11T22:55:44.205Z,15.09
2022-10-11T22:58:10.927Z,15.14
2022-10-11T23:00:37.816Z,15.19
2022-10-11T23:03:07.006Z,15.21
2022-10-11T23:05:36.775Z,15.15
2022-10-11T23:08:03.476Z,15.04
2022-10-11T23:10:30.172Z,15.00
2022-10-11T23:12:56.773Z,15.06
2022-10-11T23:15:23.492Z,15.15
2022-10-11T23:17:50.121Z,15.18
2022-10-11T23:20:16.771Z,15.18
2022-10-11T23:22:43.433Z,15.09
2022-10-11T23:25:10.153Z,14.99
2022-10-11T23:27:37.102Z,14.89
2022-10-11T23:30:05.160Z,14.84
2022-10-11T23:32:32.480Z,14.88
2022-10-11T23:34:59.155Z,14.96
2022-10-11T23:37:25.860Z,15.00
2022-10-11T23:39:52.394Z,14.97
2022-10-11T23:42:18.983Z,14.93
2022-10-11T23:44:45.761Z,14.92
2022-10-11T23:47:12.532Z,14.86
2022-10-11T23:49:39.076Z,14.91
2022-10-11T23:52:05.655Z,14.95
2022-10-11T23:54:32.288Z,14.92
2022-10-11T23:56:58.884Z,14.82
2022-10-11T23:59:25.425Z,14.71
